Time;durP1;ratioP1;P1;durP2;ratioP2;P2;SDS_P1;SDS_P2;PMS_P1;PMS_P2;Temp;Humidity;BMP_temperature;BMP_pressure;BME280_temperature;BME280_humidity;BME280_pressure;Samples;Min_cycle;Max_cycle;Signal;HPM_P1;HPM_P2
2022/10/19 00:01:31;;;;;;;15.47;11.57;;;14.00;99.90;;;;;;480753;245;28250;-71
2022/10/19 00:03:32;;;;;;;17.77;11.37;;;14.00;99.90;;;;;;480755;245;28205;-69
2022/10/19 00:05:34;;;;;;;17.03;11.73;;;14.10;99.90;;;;;;480521;247;28242;-71
2022/10/19 00:07:35;;;;;;;18.80;11.87;;;14.10;99.90;;;;;;480674;246;28609;-69
2022/10/19 00:09:36;;;;;;;17.07;12.00;;;14.10;99.90;;;;;;480709;245;28755;-70
2022/10/19 00:11:37;;;;;;;17.97;12.00;;;14.10;99.90;;;;;;480721;246;28258;-72
2022/10/19 00:13:39;;;;;;;18.67;13.63;;;14.00;99.90;;;;;;480724;246;28217;-69
2022/10/19 00:15:40;;;;;;;19.57;12.83;;;14.00;99.90;;;;;;480718;246;28315;-71
2022/10/19 00:17:42;;;;;;;22.80;13.00;;;14.00;99.90;;;;;;480668;246;28318;-69
2022/10/19 00:19:42;;;;;;;19.63;12.53;;;14.00;99.90;;;;;;480722;246;28349;-69
2022/10/19 00:21:44;;;;;;;21.10;12.70;;;14.00;99.90;;;;;;480708;247;28881;-69
2022/10/19 00:23:45;;;;;;;17.90;12.40;;;14.00;99.90;;;;;;480724;246;28680;-69
2022/10/19 00:25:46;;;;;;;21.07;13.20;;;14.00;99.90;;;;;;480718;246;28412;-70
2022/10/19 00:27:47;;;;;;;21.00;13.00;;;14.00;99.90;;;;;;480670;245;28216;-69
2022/10/19 00:29:49;;;;;;;21.43;14.13;;;14.00;99.90;;;;;;480836;246;28333;-69
2022/10/19 00:31:51;;;;;;;19.40;13.07;;;;;;;;;;480712;246;28339;-71
2022/10/19 00:33:52;;;;;;;22.47;14.47;;;14.00;99.90;;;;;;480723;247;27412;-70
2022/10/19 00:35:54;;;;;;;21.07;14.10;;;14.00;99.90;;;;;;480702;247;28572;-70
2022/10/19 00:37:55;;;;;;;20.87;13.67;;;14.00;99.90;;;;;;480675;246;28304;-70
2022/10/19 00:39:56;;;;;;;21.43;14.23;;;14.10;99.90;;;;;;480716;247;28236;-71
2022/10/19 00:41:57;;;;;;;23.70;14.80;;;14.00;99.90;;;;;;480717;246;28297;-70
2022/10/19 00:43:59;;;;;;;22.90;14.07;;;14.10;99.90;;;;;;480716;246;28238;-71
2022/10/19 00:46:00;;;;;;;24.80;15.27;;;14.10;99.90;;;;;;480704;247;28659;-70
2022/10/19 00:48:01;;;;;;;24.00;15.57;;;14.10;99.90;;;;;;480680;246;28434;-70
2022/10/19 00:50:02;;;;;;;25.47;15.60;;;14.10;99.90;;;;;;480715;246;28255;-71
2022/10/19 00:52:04;;;;;;;26.70;14.57;;;14.10;99.90;;;;;;480711;247;28311;-70
2022/10/19 00:54:05;;;;;;;22.10;14.03;;;14.00;99.90;;;;;;480708;246;28329;-71
2022/10/19 00:56:06;;;;;;;20.97;14.13;;;14.10;99.90;;;;;;480670;246;28218;-71
2022/10/19 00:58:08;;;;;;;26.00;15.60;;;14.00;99.90;;;;;;480715;246;28663;-72
2022/10/19 01:00:10;;;;;;;28.53;14.13;;;;;;;;;;480706;247;28913;-70
2022/10/19 01:02:11;;;;;;;27.00;16.70;;;14.10;99.90;;;;;;480696;247;26635;-71
2022/10/19 01:04:14;;;;;;;28.30;16.43;;;;;;;;;;480704;246;28313;-71
2022/10/19 01:06:15;;;;;;;25.33;15.37;;;14.00;99.90;;;;;;480664;247;26620;-72
2022/10/19 01:08:16;;;;;;;24.93;16.23;;;14.00;99.90;;;;;;480700;245;28117;-71
2022/10/19 01:10:19;;;;;;;29.00;18.10;;;;;;;;;;480720;245;28228;-69
2022/10/19 01:12:20;;;;;;;29.67;17.63;;;13.90;99.90;;;;;;480709;247;27436;-71
2022/10/19 01:14:21;;;;;;;28.93;17.93;;;14.00;99.90;;;;;;480722;246;28334;-73
2022/10/19 01:16:22;;;;;;;21.20;14.70;;;14.00;99.90;;;;;;480686;245;28366;-70
2022/10/19 01:18:24;;;;;;;25.47;16.53;;;14.00;99.90;;;;;;480716;245;28305;-71
2022/10/19 01:20:25;;;;;;;22.10;14.20;;;14.10;99.90;;;;;;480714;245;28313;-69
2022/10/19 01:22:26;;;;;;;20.70;13.20;;;14.10;99.90;;;;;;480706;246;28225;-70
2022/10/19 01:24:27;;;;;;;24.50;15.43;;;14.10;99.90;;;;;;480715;246;28830;-72
2022/10/19 01:26:29;;;;;;;31.30;15.23;;;14.10;99.90;;;;;;480655;244;28800;-70
2022/10/19 01:28:30;;;;;;;29.60;16.67;;;14.00;99.90;;;;;;480696;247;28234;-70
2022/10/19 01:30:32;;;;;;;25.03;14.80;;;14.00;99.90;;;;;;480714;245;28442;-69
2022/10/19 01:32:32;;;;;;;28.03;16.90;;;14.00;99.90;;;;;;480699;245;28333;-70
2022/10/19 01:34:34;;;;;;;23.00;14.93;;;14.00;99.90;;;;;;480730;244;28310;-70
2022/10/19 01:36:35;;;;;;;23.07;15.40;;;14.00;99.90;;;;;;480659;245;28124;-69
2022/10/19 01:38:36;;;;;;;27.50;15.33;;;14.00;99.90;;;;;;480709;246;28907;-70
2022/10/19 01:40:39;;;;;;;21.40;15.10;;;;;;;;;;480720;245;28918;-69
2022/10/19 01:42:40;;;;;;;29.70;16.43;;;14.00;99.90;;;;;;480717;245;26620;-70
2022/10/19 01:44:41;;;;;;;26.87;15.50;;;14.00;99.90;;;;;;480711;247;28303;-70
2022/10/19 01:46:42;;;;;;;26.00;15.87;;;14.00;99.90;;;;;;480679;245;28812;-70
2022/10/19 01:48:44;;;;;;;22.60;14.87;;;14.00;99.90;;;;;;480712;246;28868;-72
2022/10/19 01:50:46;;;;;;;19.57;12.77;;;;;;;;;;480703;245;28359;-70
2022/10/19 01:52:47;;;;;;;22.93;14.20;;;14.00;99.90;;;;;;480706;246;26727;-69
2022/10/19 01:54:49;;;;;;;23.10;14.57;;;14.00;99.90;;;;;;480707;246;28706;-70
2022/10/19 01:56:50;;;;;;;21.23;14.20;;;14.00;99.90;;;;;;480672;246;28782;-71
2022/10/19 01:58:51;;;;;;;21.57;13.47;;;14.00;99.90;;;;;;480708;245;28312;-70
2022/10/19 02:00:52;;;;;;;23.83;13.17;;;14.00;99.90;;;;;;480501;247;28337;-70
2022/10/19 02:02:54;;;;;;;25.73;14.23;;;14.00;99.90;;;;;;480714;246;28205;-69
2022/10/19 02:04:55;;;;;;;26.03;14.67;;;14.00;99.90;;;;;;480698;247;28319;-70
2022/10/19 02:06:56;;;;;;;21.00;14.00;;;14.00;99.90;;;;;;480664;245;28306;-71
2022/10/19 02:08:57;;;;;;;24.80;14.13;;;14.00;99.90;;;;;;480688;246;28788;-70
2022/10/19 02:10:59;;;;;;;21.07;12.30;;;14.00;99.90;;;;;;480708;246;28682;-70
2022/10/19 02:13:00;;;;;;;22.40;13.37;;;14.10;99.90;;;;;;480707;246;28214;-69
2022/10/19 02:15:01;;;;;;;23.30;13.57;;;14.10;99.90;;;;;;480711;246;28449;-70
2022/10/19 02:17:02;;;;;;;25.03;14.80;;;14.00;99.90;;;;;;480657;246;28253;-71
2022/10/19 02:19:04;;;;;;;32.17;16.10;;;14.00;99.90;;;;;;480705;246;28253;-70
2022/10/19 02:21:06;;;;;;;26.20;15.57;;;;;;;;;;480724;246;28310;-71
2022/10/19 02:23:07;;;;;;;26.27;15.60;;;14.00;99.90;;;;;;480894;246;26495;-69
2022/10/19 02:25:10;;;;;;;31.80;15.10;;;;;;;;;;480700;247;28314;-69
2022/10/19 02:27:11;;;;;;;23.30;14.23;;;14.00;99.90;;;;;;480657;247;26938;-70
2022/10/19 02:29:12;;;;;;;23.23;14.50;;;14.00;99.90;;;;;;480710;246;28690;-69
2022/10/19 02:31:14;;;;;;;25.97;15.33;;;14.00;99.90;;;;;;480702;246;28399;-70
2022/10/19 02:33:15;;;;;;;24.23;15.07;;;14.00;99.90;;;;;;480704;247;28222;-70
2022/10/19 02:35:16;;;;;;;23.43;14.20;;;14.00;99.90;;;;;;480691;246;28414;-69
2022/10/19 02:37:17;;;;;;;24.80;14.70;;;14.00;99.90;;;;;;480668;247;28440;-70
2022/10/19 02:39:19;;;;;;;20.60;13.07;;;14.00;99.90;;;;;;480723;246;28439;-69
2022/10/19 02:41:20;;;;;;;21.17;13.27;;;14.00;99.90;;;;;;480731;246;28669;-70
2022/10/19 02:43:22;;;;;;;24.27;12.80;;;14.00;99.90;;;;;;480726;246;28804;-71
2022/10/19 02:45:22;;;;;;;20.67;12.60;;;14.00;99.90;;;;;;480631;247;28349;-70
2022/10/19 02:47:25;;;;;;;30.13;15.40;;;;;;;;;;480673;247;28239;-69
2022/10/19 02:49:26;;;;;;;25.60;14.70;;;14.00;99.90;;;;;;480683;247;27049;-69
2022/10/19 02:51:27;;;;;;;28.83;16.53;;;14.00;99.90;;;;;;480728;246;28779;-72
2022/10/19 02:53:30;;;;;;;26.47;14.07;;;;;;;;;;480731;246;28198;-70
2022/10/19 02:55:31;;;;;;;23.60;14.23;;;14.00;99.90;;;;;;480711;247;26732;-70
2022/10/19 02:57:32;;;;;;;26.63;14.10;;;14.00;99.90;;;;;;480676;246;29307;-70
2022/10/19 02:59:34;;;;;;;23.83;13.90;;;14.00;99.90;;;;;;480719;246;28679;-71
2022/10/19 03:01:35;;;;;;;24.03;14.03;;;13.90;99.90;;;;;;480726;246;28294;-70
2022/10/19 03:03:36;;;;;;;26.50;14.20;;;13.90;99.90;;;;;;480707;247;28303;-70
2022/10/19 03:05:37;;;;;;;23.73;13.80;;;14.00;99.90;;;;;;480730;245;28308;-69
2022/10/19 03:07:39;;;;;;;25.67;14.93;;;14.00;99.90;;;;;;480681;246;28304;-70
2022/10/19 03:09:40;;;;;;;24.27;14.47;;;14.00;99.90;;;;;;480709;246;28929;-70
2022/10/19 03:11:41;;;;;;;26.47;14.90;;;13.90;99.90;;;;;;480718;246;28807;-69
2022/10/19 03:13:42;;;;;;;24.73;13.93;;;13.90;99.90;;;;;;480721;246;28729;-70
2022/10/19 03:15:44;;;;;;;24.97;13.60;;;13.90;99.90;;;;;;480727;246;28249;-69
2022/10/19 03:17:45;;;;;;;22.53;14.20;;;13.90;99.90;;;;;;480693;246;28218;-70
2022/10/19 03:19:46;;;;;;;29.83;15.67;;;13.90;99.90;;;;;;480714;247;28221;-71
2022/10/19 03:21:47;;;;;;;26.03;14.47;;;13.90;99.90;;;;;;480718;246;28335;-69
2022/10/19 03:23:50;;;;;;;34.27;15.10;;;;;;;;;;480712;247;28445;-71
2022/10/19 03:25:51;;;;;;;24.97;13.50;;;13.80;99.90;;;;;;480719;247;27075;-71
2022/10/19 03:27:52;;;;;;;26.03;13.10;;;13.80;99.90;;;;;;480340;246;28215;-70
2022/10/19 03:29:54;;;;;;;23.87;14.10;;;13.80;99.90;;;;;;480279;246;28288;-69
2022/10/19 03:31:55;;;;;;;27.30;14.33;;;13.80;99.90;;;;;;480731;246;28882;-70
2022/10/19 03:33:56;;;;;;;25.03;13.30;;;13.80;99.90;;;;;;480726;246;28702;-72
2022/10/19 03:35:57;;;;;;;28.40;13.40;;;13.80;99.90;;;;;;480710;246;28693;-70
2022/10/19 03:37:59;;;;;;;28.70;15.10;;;13.70;99.90;;;;;;480679;247;28347;-70
2022/10/19 03:40:00;;;;;;;25.50;13.70;;;13.70;99.90;;;;;;480716;246;28318;-69
2022/10/19 03:42:01;;;;;;;30.97;15.60;;;13.80;99.90;;;;;;480713;246;28364;-70
2022/10/19 03:44:04;;;;;;;28.90;15.23;;;;;;;;;;480729;246;28446;-70
2022/10/19 03:46:05;;;;;;;29.97;14.13;;;13.70;99.90;;;;;;480586;246;26990;-72
2022/10/19 03:48:06;;;;;;;28.60;14.83;;;13.70;99.90;;;;;;480723;245;28189;-69
2022/10/19 03:50:10;;;;;;;32.07;15.63;;;13.60;99.90;;;;;;480708;245;28296;-70
2022/10/19 03:52:09;;;;;;;33.93;13.07;;;13.60;99.90;;;;;;480590;247;28394;-72
2022/10/19 03:54:10;;;;;;;29.27;14.40;;;13.70;99.90;;;;;;480719;246;28424;-70
2022/10/19 03:56:11;;;;;;;30.07;15.47;;;13.60;99.90;;;;;;480685;245;28085;-70
2022/10/19 03:58:12;;;;;;;27.70;14.27;;;13.50;99.90;;;;;;480726;245;28968;-69
2022/10/19 04:00:14;;;;;;;27.43;13.87;;;13.50;99.90;;;;;;480722;245;29017;-70
2022/10/19 04:02:15;;;;;;;26.43;13.33;;;13.50;99.90;;;;;;480711;245;28333;-71
2022/10/19 04:04:17;;;;;;;26.93;14.03;;;;;;;;;;480683;247;28083;-70
2022/10/19 04:06:19;;;;;;;32.20;13.60;;;13.40;99.90;;;;;;480706;246;27509;-69
2022/10/19 04:08:20;;;;;;;21.97;12.47;;;13.30;99.90;;;;;;480732;246;28660;-70
2022/10/19 04:10:21;;;;;;;26.20;13.20;;;13.30;99.90;;;;;;480712;247;28201;-70
2022/10/19 04:12:22;;;;;;;26.90;12.90;;;13.30;99.90;;;;;;480704;247;28676;-69
2022/10/19 04:14:24;;;;;;;23.33;11.47;;;13.20;99.90;;;;;;480730;246;28192;-69
2022/10/19 04:16:25;;;;;;;24.17;12.20;;;13.30;99.90;;;;;;480662;246;28087;-69
2022/10/19 04:18:26;;;;;;;23.33;10.83;;;13.20;99.90;;;;;;480726;245;28181;-70
2022/10/19 04:20:27;;;;;;;27.33;13.57;;;13.20;99.90;;;;;;480709;247;29027;-71
2022/10/19 04:22:29;;;;;;;27.17;12.53;;;13.20;99.90;;;;;;480704;247;28912;-70
2022/10/19 04:24:30;;;;;;;23.07;12.07;;;13.20;99.90;;;;;;480729;245;28352;-71
2022/10/19 04:26:31;;;;;;;22.30;11.73;;;13.20;99.90;;;;;;480676;245;28482;-70
2022/10/19 04:28:32;;;;;;;25.33;12.20;;;13.30;99.90;;;;;;480713;246;28353;-70
2022/10/19 04:30:34;;;;;;;29.33;12.80;;;13.10;99.90;;;;;;480704;247;28194;-70
2022/10/19 04:32:35;;;;;;;31.53;14.60;;;13.00;99.90;;;;;;480731;245;28312;-69
2022/10/19 04:34:36;;;;;;;30.57;14.80;;;13.00;99.90;;;;;;480725;245;28546;-70
2022/10/19 04:36:37;;;;;;;31.07;14.60;;;13.00;99.90;;;;;;480679;245;29315;-70
2022/10/19 04:38:39;;;;;;;28.40;13.50;;;13.00;99.90;;;;;;480720;246;28033;-70
2022/10/19 04:40:40;;;;;;;27.17;13.63;;;13.00;99.90;;;;;;480718;246;28200;-70
2022/10/19 04:42:41;;;;;;;30.67;14.97;;;13.00;99.90;;;;;;480714;246;28088;-69
2022/10/19 04:44:42;;;;;;;32.50;14.37;;;13.00;99.90;;;;;;480716;246;28441;-70
2022/10/19 04:46:44;;;;;;;33.40;13.37;;;12.90;99.90;;;;;;480572;246;28979;-71
2022/10/19 04:48:45;;;;;;;29.20;14.00;;;13.00;99.90;;;;;;480688;245;29102;-70
2022/10/19 04:50:46;;;;;;;27.53;12.87;;;12.90;99.90;;;;;;480712;245;28552;-71
2022/10/19 04:52:47;;;;;;;28.40;13.30;;;13.00;99.90;;;;;;480730;246;28071;-69
2022/10/19 04:54:49;;;;;;;27.13;12.43;;;13.00;99.90;;;;;;480721;245;28393;-71
2022/10/19 04:56:52;;;;;;;28.43;14.13;;;12.90;99.90;;;;;;480688;245;28210;-71
2022/10/19 04:58:51;;;;;;;23.43;11.70;;;12.90;99.90;;;;;;480594;247;28061;-70
2022/10/19 05:00:52;;;;;;;22.37;12.43;;;13.00;99.90;;;;;;480717;245;28318;-70
2022/10/19 05:02:54;;;;;;;21.00;11.23;;;13.00;99.90;;;;;;480709;245;28714;-70
2022/10/19 05:04:55;;;;;;;24.30;11.53;;;13.00;99.90;;;;;;480711;247;28544;-70
2022/10/19 05:06:56;;;;;;;24.37;12.53;;;13.10;99.90;;;;;;480682;245;28822;-71
2022/10/19 05:08:58;;;;;;;22.67;11.23;;;13.00;99.90;;;;;;480688;245;28050;-69
2022/10/19 05:10:59;;;;;;;24.80;11.50;;;13.10;99.90;;;;;;480705;247;28049;-70
2022/10/19 05:13:01;;;;;;;21.10;10.53;;;13.10;99.90;;;;;;480709;245;28521;-69
2022/10/19 05:15:01;;;;;;;21.70;12.17;;;13.10;99.90;;;;;;480686;245;27985;-70
2022/10/19 05:17:03;;;;;;;22.10;12.60;;;13.10;99.90;;;;;;480653;246;28901;-71
2022/10/19 05:19:04;;;;;;;25.73;11.50;;;13.10;99.90;;;;;;480719;245;28088;-70
2022/10/19 05:21:05;;;;;;;19.87;11.03;;;13.10;99.90;;;;;;480695;246;29439;-70
2022/10/19 05:23:07;;;;;;;21.70;9.97;;;13.10;99.90;;;;;;480713;246;28600;-72
2022/10/19 05:25:08;;;;;;;17.03;9.10;;;13.20;99.90;;;;;;480719;246;28536;-69
2022/10/19 05:27:09;;;;;;;16.33;8.30;;;13.20;99.90;;;;;;480670;245;28053;-70
2022/10/19 05:29:10;;;;;;;16.70;9.83;;;13.20;99.90;;;;;;480905;245;28414;-70
2022/10/19 05:31:12;;;;;;;15.73;9.00;;;13.20;99.90;;;;;;480694;246;28654;-71
2022/10/19 05:33:14;;;;;;;18.10;9.47;;;;;;;;;;480717;246;28087;-70
2022/10/19 05:35:15;;;;;;;15.77;9.03;;;13.20;99.90;;;;;;480631;247;27565;-70
2022/10/19 05:37:16;;;;;;;17.17;10.60;;;13.20;99.90;;;;;;480679;246;28233;-69
2022/10/19 05:39:18;;;;;;;15.20;9.30;;;13.20;99.90;;;;;;480717;245;28466;-71
2022/10/19 05:41:19;;;;;;;18.13;10.10;;;13.20;99.90;;;;;;480699;247;28095;-70
2022/10/19 05:43:20;;;;;;;14.80;9.47;;;13.20;99.90;;;;;;480712;245;28443;-71
2022/10/19 05:45:21;;;;;;;13.37;7.60;;;13.20;99.90;;;;;;480593;246;28843;-71
2022/10/19 05:47:23;;;;;;;12.20;7.80;;;13.30;99.90;;;;;;480642;247;29021;-71
2022/10/19 05:49:24;;;;;;;11.80;7.53;;;13.30;99.90;;;;;;480699;246;28602;-70
2022/10/19 05:51:25;;;;;;;11.90;6.73;;;13.30;99.90;;;;;;480706;246;28910;-73
2022/10/19 05:53:27;;;;;;;13.37;8.30;;;13.40;99.90;;;;;;480710;247;28314;-70
2022/10/19 05:55:28;;;;;;;13.27;8.27;;;13.40;99.90;;;;;;480709;246;28433;-72
2022/10/19 05:57:29;;;;;;;14.90;8.73;;;13.40;99.90;;;;;;480669;245;28349;-71
2022/10/19 05:59:32;;;;;;;11.43;7.80;;;;;;;;;;480693;246;28091;-73
2022/10/19 06:01:33;;;;;;;10.90;7.10;;;13.40;99.90;;;;;;480697;247;27626;-71
2022/10/19 06:03:34;;;;;;;11.70;7.43;;;13.40;99.90;;;;;;480703;247;28369;-71
2022/10/19 06:05:35;;;;;;;9.63;6.27;;;13.40;99.90;;;;;;480711;246;28341;-69
2022/10/19 06:07:36;;;;;;;11.30;8.23;;;13.40;99.90;;;;;;480680;245;28360;-69
2022/10/19 06:09:39;;;;;;;10.80;6.43;;;;;;;;;;480707;246;28073;-69
2022/10/19 06:11:40;;;;;;;9.40;6.50;;;13.30;99.90;;;;;;480680;247;27599;-69
2022/10/19 06:13:41;;;;;;;8.97;6.50;;;13.30;99.90;;;;;;480734;246;28266;-69
2022/10/19 06:15:43;;;;;;;11.00;7.67;;;13.30;99.90;;;;;;480726;246;28563;-70
2022/10/19 06:17:44;;;;;;;12.80;7.90;;;13.30;99.90;;;;;;480685;247;28470;-71
2022/10/19 06:19:45;;;;;;;11.40;7.50;;;13.30;99.90;;;;;;480725;246;28767;-69
2022/10/19 06:21:46;;;;;;;10.30;6.80;;;13.30;99.90;;;;;;480730;247;28087;-70
2022/10/19 06:23:48;;;;;;;13.10;7.17;;;13.30;99.90;;;;;;480750;245;28846;-70
2022/10/19 06:25:49;;;;;;;7.40;5.40;;;13.40;99.90;;;;;;480722;247;28342;-70
2022/10/19 06:27:50;;;;;;;7.97;5.80;;;13.50;99.90;;;;;;480680;246;28573;-71
2022/10/19 06:29:51;;;;;;;11.13;6.60;;;13.50;99.90;;;;;;480720;246;28808;-70
2022/10/19 06:31:54;;;;;;;10.10;6.90;;;13.40;99.90;;;;;;480719;246;28829;-70
2022/10/19 06:33:54;;;;;;;12.27;7.33;;;13.40;99.90;;;;;;480645;247;28134;-69
2022/10/19 06:35:55;;;;;;;11.33;7.33;;;13.30;99.90;;;;;;480714;246;28358;-70
2022/10/19 06:37:56;;;;;;;11.80;6.50;;;13.40;99.90;;;;;;480675;247;28353;-71
2022/10/19 06:39:58;;;;;;;10.80;6.80;;;13.40;99.90;;;;;;480735;246;28341;-70
2022/10/19 06:41:59;;;;;;;14.40;7.43;;;13.40;99.90;;;;;;480724;245;28091;-71
2022/10/19 06:44:00;;;;;;;12.57;7.20;;;13.50;99.90;;;;;;480727;245;28086;-70
2022/10/19 06:46:01;;;;;;;11.00;6.93;;;13.50;99.90;;;;;;480603;246;28351;-71
2022/10/19 06:48:03;;;;;;;9.60;6.37;;;13.50;99.90;;;;;;480674;247;28811;-72
2022/10/19 06:50:04;;;;;;;10.60;7.20;;;13.60;99.90;;;;;;480724;245;28824;-71
2022/10/19 06:52:06;;;;;;;9.23;6.77;;;13.60;99.90;;;;;;480727;245;28476;-71
2022/10/19 06:54:06;;;;;;;8.97;6.13;;;13.60;99.90;;;;;;480701;246;28471;-70
2022/10/19 06:56:08;;;;;;;11.03;7.57;;;13.60;99.90;;;;;;480680;246;28187;-70
2022/10/19 06:58:09;;;;;;;8.77;6.30;;;13.60;99.90;;;;;;480742;245;28478;-72
2022/10/19 07:00:10;;;;;;;8.70;6.30;;;13.70;99.90;;;;;;480724;246;28218;-70
2022/10/19 07:02:12;;;;;;;12.23;6.20;;;13.70;99.90;;;;;;480738;246;28364;-71
2022/10/19 07:04:13;;;;;;;9.37;6.57;;;13.80;99.90;;;;;;480734;245;28360;-70
2022/10/19 07:06:14;;;;;;;7.73;6.20;;;13.80;99.90;;;;;;480683;246;28869;-71
2022/10/19 07:08:15;;;;;;;10.30;7.50;;;13.80;99.90;;;;;;480709;246;28711;-72
2022/10/19 07:10:17;;;;;;;11.93;7.90;;;13.70;99.90;;;;;;480721;246;28779;-70
2022/10/19 07:12:18;;;;;;;10.50;6.90;;;13.70;99.90;;;;;;480706;247;28876;-70
2022/10/19 07:14:19;;;;;;;9.93;6.53;;;13.70;99.90;;;;;;480735;246;28427;-71
2022/10/19 07:16:20;;;;;;;8.67;6.50;;;13.80;99.90;;;;;;480718;246;28340;-70
2022/10/19 07:18:22;;;;;;;11.10;7.40;;;13.80;99.90;;;;;;480730;245;28353;-72
2022/10/19 07:20:23;;;;;;;10.07;7.20;;;13.80;99.90;;;;;;480719;246;28310;-71
2022/10/19 07:22:24;;;;;;;10.70;7.43;;;13.70;99.90;;;;;;480730;245;28219;-70
2022/10/19 07:24:25;;;;;;;9.50;6.67;;;13.80;99.90;;;;;;480723;245;28453;-70
2022/10/19 07:26:29;;;;;;;11.30;6.93;;;;;;;;;;480683;246;28212;-72
2022/10/19 07:28:29;;;;;;;9.97;7.03;;;13.70;99.90;;;;;;480675;247;26490;-70
2022/10/19 07:30:32;;;;;;;10.47;7.13;;;;;;;;;;480721;247;28364;-69
2022/10/19 07:32:34;;;;;;;11.87;6.67;;;;;;;;;;480713;245;26615;-71
2022/10/19 07:34:35;;;;;;;10.50;6.23;;;13.80;99.90;;;;;;480727;246;27385;-70
2022/10/19 07:36:38;;;;;;;6.93;5.80;;;;;;;;;;480678;246;28376;-72
2022/10/19 07:38:39;;;;;;;7.83;6.20;;;13.80;99.90;;;;;;480719;246;26614;-70
2022/10/19 07:40:40;;;;;;;9.50;6.57;;;13.90;99.90;;;;;;480719;245;28338;-70
2022/10/19 07:42:41;;;;;;;9.30;6.50;;;13.90;99.90;;;;;;480724;246;28814;-70
2022/10/19 07:44:43;;;;;;;6.40;5.10;;;14.00;99.90;;;;;;480729;245;28772;-71
2022/10/19 07:46:44;;;;;;;6.07;5.13;;;14.10;99.90;;;;;;480593;246;30187;-70
2022/10/19 07:48:45;;;;;;;7.17;6.47;;;14.20;99.90;;;;;;480716;247;28218;-70
2022/10/19 07:50:46;;;;;;;7.17;6.30;;;14.10;99.90;;;;;;480717;246;28223;-70
2022/10/19 07:52:48;;;;;;;7.27;5.60;;;14.10;99.90;;;;;;480714;246;28375;-70
2022/10/19 07:54:49;;;;;;;6.33;5.40;;;14.10;99.90;;;;;;480720;246;28298;-70
2022/10/19 07:56:50;;;;;;;9.67;6.10;;;14.20;99.90;;;;;;480673;246;28226;-69
2022/10/19 07:58:51;;;;;;;6.90;5.90;;;14.20;99.90;;;;;;480711;247;28314;-70
2022/10/19 08:00:53;;;;;;;5.57;4.97;;;14.10;99.90;;;;;;480714;246;28327;-70
2022/10/19 08:02:54;;;;;;;11.47;5.77;;;14.30;99.90;;;;;;480713;246;28241;-70
2022/10/19 08:04:55;;;;;;;5.60;4.90;;;14.20;99.90;;;;;;480704;246;28217;-70
2022/10/19 08:06:56;;;;;;;7.77;4.90;;;14.30;99.90;;;;;;480682;246;28985;-72
2022/10/19 08:08:58;;;;;;;6.33;5.50;;;14.30;99.90;;;;;;480717;245;29293;-70
2022/10/19 08:10:59;;;;;;;6.00;4.60;;;14.30;99.90;;;;;;480718;245;28973;-71
2022/10/19 08:13:00;;;;;;;8.73;5.10;;;14.40;99.90;;;;;;480724;245;28549;-70
2022/10/19 08:15:01;;;;;;;5.50;4.60;;;14.30;99.90;;;;;;480707;246;28525;-70
2022/10/19 08:17:03;;;;;;;6.60;4.70;;;14.30;99.90;;;;;;480674;246;28316;-70
2022/10/19 08:19:05;;;;;;;5.97;4.00;;;14.30;99.90;;;;;;480718;246;28443;-70
2022/10/19 08:21:05;;;;;;;4.20;3.80;;;14.40;99.90;;;;;;480659;247;28524;-71
2022/10/19 08:23:06;;;;;;;4.33;3.90;;;14.40;99.90;;;;;;480744;245;28679;-70
2022/10/19 08:25:08;;;;;;;4.30;3.90;;;14.40;99.90;;;;;;480710;246;28430;-70
2022/10/19 08:27:09;;;;;;;5.50;3.37;;;14.70;99.90;;;;;;480673;245;28529;-72
2022/10/19 08:29:11;;;;;;;4.30;3.90;;;14.90;99.90;;;;;;480717;246;28849;-71
2022/10/19 08:31:11;;;;;;;3.47;3.17;;;15.00;99.90;;;;;;480635;247;29009;-72
2022/10/19 08:33:14;;;;;;;3.93;3.63;;;14.90;99.90;;;;;;480714;244;29331;-70
2022/10/19 08:35:14;;;;;;;4.50;4.10;;;15.00;99.90;;;;;;480679;247;29014;-71
2022/10/19 08:37:15;;;;;;;4.43;4.03;;;15.00;99.90;;;;;;480686;246;29402;-70
2022/10/19 08:39:17;;;;;;;4.70;4.20;;;15.10;99.90;;;;;;480715;246;28857;-71
2022/10/19 08:41:18;;;;;;;4.30;3.83;;;15.00;99.90;;;;;;480736;246;28866;-71
2022/10/19 08:43:19;;;;;;;4.50;4.10;;;15.00;99.90;;;;;;480706;246;28969;-70
2022/10/19 08:45:20;;;;;;;4.57;4.13;;;14.90;99.90;;;;;;480718;245;28957;-71
2022/10/19 08:47:21;;;;;;;4.90;4.40;;;14.90;99.90;;;;;;480677;246;28558;-71
2022/10/19 08:49:23;;;;;;;5.03;4.53;;;15.00;99.90;;;;;;480713;246;28945;-70
2022/10/19 08:51:26;;;;;;;5.30;4.50;;;15.10;99.90;;;;;;480719;246;28953;-71
2022/10/19 08:53:25;;;;;;;5.00;4.60;;;15.00;99.90;;;;;;480647;245;28871;-69
2022/10/19 08:55:27;;;;;;;4.53;4.13;;;14.90;99.90;;;;;;480714;245;28861;-71
2022/10/19 08:57:29;;;;;;;5.17;3.77;;;15.00;99.90;;;;;;480670;246;29395;-68
2022/10/19 08:59:29;;;;;;;7.93;3.90;;;15.10;99.90;;;;;;480644;247;29410;-70
2022/10/19 09:01:30;;;;;;;4.20;3.80;;;14.90;99.90;;;;;;480724;246;29428;-71
2022/10/19 09:03:32;;;;;;;4.10;3.70;;;14.90;99.90;;;;;;480721;246;28855;-69
2022/10/19 09:05:33;;;;;;;5.70;5.20;;;14.90;99.90;;;;;;480714;245;28930;-70
2022/10/19 09:07:35;;;;;;;8.53;4.27;;;15.00;99.90;;;;;;480754;246;28531;-70
2022/10/19 09:09:35;;;;;;;4.50;4.10;;;15.00;99.90;;;;;;480651;247;28966;-70
2022/10/19 09:11:37;;;;;;;6.77;4.30;;;15.00;99.90;;;;;;480713;246;28661;-70
2022/10/19 09:13:38;;;;;;;4.20;3.90;;;15.10;99.90;;;;;;480696;246;28851;-69
2022/10/19 09:15:39;;;;;;;4.70;4.00;;;15.20;99.90;;;;;;480703;247;28865;-70
2022/10/19 09:17:40;;;;;;;4.20;3.80;;;15.30;99.90;;;;;;480707;245;28960;-69
2022/10/19 09:19:42;;;;;;;5.97;4.17;;;15.30;99.90;;;;;;480714;245;28956;-70
2022/10/19 09:21:43;;;;;;;6.50;3.77;;;15.30;99.90;;;;;;480717;245;29347;-71
2022/10/19 09:23:44;;;;;;;5.03;4.37;;;15.30;99.90;;;;;;480720;245;29335;-70
2022/10/19 09:25:45;;;;;;;4.17;3.83;;;15.40;99.90;;;;;;480695;246;29314;-69
2022/10/19 09:27:47;;;;;;;5.00;4.60;;;15.50;99.90;;;;;;480696;245;28843;-68
2022/10/19 09:29:48;;;;;;;4.30;3.87;;;15.50;99.90;;;;;;480709;246;28572;-70
2022/10/19 09:31:49;;;;;;;4.30;3.90;;;15.60;99.90;;;;;;480712;246;28993;-72
2022/10/19 09:33:51;;;;;;;6.00;3.80;;;15.70;99.90;;;;;;480696;246;28854;-69
2022/10/19 09:35:52;;;;;;;4.00;3.70;;;15.80;99.90;;;;;;480702;246;28866;-70
2022/10/19 09:37:53;;;;;;;4.63;4.20;;;15.90;99.90;;;;;;480662;247;28858;-69
2022/10/19 09:39:54;;;;;;;8.27;4.10;;;16.00;99.90;;;;;;480698;247;28874;-70
2022/10/19 09:41:55;;;;;;;5.03;3.50;;;16.10;99.90;;;;;;480714;246;28989;-70
2022/10/19 09:43:57;;;;;;;4.00;3.70;;;16.30;99.90;;;;;;480700;246;28951;-70
2022/10/19 09:45:58;;;;;;;4.43;4.03;;;16.30;99.90;;;;;;480631;246;29436;-69
2022/10/19 09:47:59;;;;;;;4.20;3.80;;;16.30;99.90;;;;;;480683;247;29312;-69
2022/10/19 09:50:00;;;;;;;3.80;3.50;;;16.40;99.90;;;;;;480736;246;29283;-69
2022/10/19 09:52:02;;;;;;;4.07;3.67;;;16.50;99.90;;;;;;480727;247;29376;-70
2022/10/19 09:54:03;;;;;;;3.97;3.67;;;16.50;99.90;;;;;;480718;246;28871;-70
2022/10/19 09:56:05;;;;;;;3.40;3.20;;;16.50;99.90;;;;;;480694;247;28898;-70
2022/10/19 09:58:05;;;;;;;4.53;3.73;;;16.40;99.90;;;;;;480686;245;28931;-71
2022/10/19 10:00:07;;;;;;;3.40;3.10;;;16.30;99.90;;;;;;480726;246;28866;-70
2022/10/19 10:02:08;;;;;;;3.97;3.47;;;16.40;99.90;;;;;;480730;246;28864;-69
2022/10/19 10:04:09;;;;;;;4.30;3.20;;;16.50;99.90;;;;;;480730;245;28755;-69
2022/10/19 10:06:10;;;;;;;3.40;3.10;;;16.50;99.90;;;;;;480758;246;28956;-70
2022/10/19 10:08:12;;;;;;;3.93;3.53;;;16.50;99.90;;;;;;480704;246;28845;-69
2022/10/19 10:10:13;;;;;;;4.30;3.90;;;16.40;99.90;;;;;;480697;246;29404;-70
2022/10/19 10:12:14;;;;;;;5.83;4.13;;;16.40;99.90;;;;;;480727;246;29327;-72
2022/10/19 10:14:15;;;;;;;6.30;4.00;;;16.20;99.90;;;;;;480715;247;29454;-69
2022/10/19 10:16:17;;;;;;;5.43;4.93;;;15.90;99.90;;;;;;480691;246;29346;-70
2022/10/19 10:18:18;;;;;;;6.20;4.30;;;15.80;99.90;;;;;;480738;245;28854;-69
2022/10/19 10:20:19;;;;;;;6.40;4.60;;;15.90;99.90;;;;;;480732;246;29000;-69
2022/10/19 10:22:20;;;;;;;5.40;3.93;;;15.80;99.90;;;;;;480731;247;28981;-70
2022/10/19 10:24:22;;;;;;;5.50;4.70;;;15.70;99.90;;;;;;480720;247;28766;-69
2022/10/19 10:26:23;;;;;;;5.40;4.80;;;15.70;99.90;;;;;;480690;247;28942;-70